Time;durP1;ratioP1;P1;durP2;ratioP2;P2;SDS_P1;SDS_P2;PMS_P1;PMS_P2;Temp;Humidity;BMP_temperature;BMP_pressure;BME280_temperature;BME280_humidity;BME280_pressure;Samples;Min_cycle;Max_cycle;Signal;HPM_P1;HPM_P2
2022/11/07 00:00:06;;;;;;;;;;;;;;;20.25;35.68;96975.72;5157511;27;19910;-32
2022/11/07 00:02:31;;;;;;;;;;;;;;;20.29;35.47;96993.56;5157457;27;19913;-36
2022/11/07 00:04:56;;;;;;;;;;;;;;;20.27;35.66;96987.78;5157598;27;19997;-35
2022/11/07 00:07:22;;;;;;;;;;;;;;;20.27;35.45;96990.56;5157247;27;20248;-35
2022/11/07 00:09:47;;;;;;;;;;;;;;;20.25;35.56;96986.75;5157411;27;19907;-35
2022/11/07 00:12:12;;;;;;;;;;;;;;;20.32;35.19;96994.59;5157684;27;19969;-37
2022/11/07 00:14:37;;;;;;;;;;;;;;;20.27;35.56;96998.06;5157485;27;19907;-36
2022/11/07 00:17:04;;;;;;;;;;;;;;;20.27;35.50;96998.81;5157089;27;19960;-35
2022/11/07 00:19:29;;;;;;;;;;;;;;;20.23;35.52;96991.97;5157044;27;19919;-35
2022/11/07 00:21:55;;;;;;;;;;;;;;;20.27;35.29;97000.81;5157055;27;20439;-35
2022/11/07 00:24:20;;;;;;;;;;;;;;;20.26;35.38;97002.78;5157148;27;19940;-35
2022/11/07 00:26:46;;;;;;;;;;;;;;;20.24;35.55;97004.50;5157072;27;19969;-34
2022/11/07 00:29:18;;;;;;;;;;;;;;;20.28;35.42;97005.81;5157130;27;19907;-35
2022/11/07 00:31:44;;;;;;;;;;;;;;;20.28;35.56;97007.81;5156893;27;19906;-35
2022/11/07 00:34:09;;;;;;;;;;;;;;;20.26;35.61;97011.06;5156872;27;19918;-35
2022/11/07 00:36:35;;;;;;;;;;;;;;;20.27;35.39;97009.06;5156917;27;19907;-34
2022/11/07 00:39:00;;;;;;;;;;;;;;;20.20;35.29;97007.44;5156647;27;19914;-36
2022/11/07 00:41:26;;;;;;;;;;;;;;;20.21;35.57;97008.97;5156687;27;19914;-36
2022/11/07 00:43:51;;;;;;;;;;;;;;;20.22;35.17;97010.50;5156765;27;19907;-36
2022/11/07 00:46:18;;;;;;;;;;;;;;;20.21;35.48;96999.94;5156779;27;19907;-36
2022/11/07 00:48:43;;;;;;;;;;;;;;;20.26;35.06;97005.56;5156699;27;19907;-37
2022/11/07 00:51:10;;;;;;;;;;;;;;;20.27;34.97;97001.56;5156587;27;19933;-35
2022/11/07 00:53:36;;;;;;;;;;;;;;;20.23;35.15;96992.72;5156621;27;20001;-35
2022/11/07 00:56:02;;;;;;;;;;;;;;;20.26;35.12;97002.78;5156501;27;19953;-35
2022/11/07 00:58:28;;;;;;;;;;;;;;;20.21;35.41;97000.69;5156437;27;19911;-36
2022/11/07 01:00:53;;;;;;;;;;;;;;;20.26;35.02;96997.28;5156461;27;19907;-36
2022/11/07 01:06:03;;;;;;;;;;;;;;;20.22;34.96;96995.97;5156482;27;20058;-35
2022/11/07 01:08:29;;;;;;;;;;;;;;;20.17;35.42;97000.13;5156457;27;19907;-35
2022/11/07 01:10:54;;;;;;;;;;;;;;;20.21;35.19;96994.44;5156444;27;19931;-37
2022/11/07 01:13:20;;;;;;;;;;;;;;;20.18;35.28;97000.88;5156154;27;20266;-35
2022/11/07 01:15:45;;;;;;;;;;;;;;;20.22;35.02;97004.22;5156197;27;19907;-36
2022/11/07 01:18:11;;;;;;;;;;;;;;;20.25;34.83;97001.28;5137427;27;19906;-35
2022/11/07 01:20:36;;;;;;;;;;;;;;;20.24;34.87;96999.75;5155866;27;19929;-35
2022/11/07 01:23:02;;;;;;;;;;;;;;;20.24;35.01;97002.50;5156034;27;19957;-35
2022/11/07 01:25:27;;;;;;;;;;;;;;;20.22;35.12;96999.47;5155692;27;19980;-35
2022/11/07 01:27:52;;;;;;;;;;;;;;;20.17;35.09;97011.16;5155830;27;19907;-35
2022/11/07 01:30:17;;;;;;;;;;;;;;;20.18;35.25;97004.41;5155740;27;19907;-34
2022/11/07 01:32:43;;;;;;;;;;;;;;;20.12;35.36;97003.56;5156153;27;20009;-34
2022/11/07 01:35:08;;;;;;;;;;;;;;;20.19;34.78;97011.44;5154989;27;19936;-35
2022/11/07 01:37:33;;;;;;;;;;;;;;;20.22;34.75;97004.97;5147912;27;19964;-35
2022/11/07 01:39:59;;;;;;;;;;;;;;;20.21;34.99;97006.22;5154612;27;19907;-34
2022/11/07 01:42:24;;;;;;;;;;;;;;;20.23;35.01;97005.75;5155769;27;19964;-35
2022/11/07 01:44:54;;;;;;;;;;;;;;;20.18;34.87;97001.66;5155605;27;19917;-35
2022/11/07 01:47:20;;;;;;;;;;;;;;;20.19;34.82;96997.66;5155628;27;19943;-36
2022/11/07 01:49:46;;;;;;;;;;;;;;;20.25;34.74;97000.50;5155919;27;19913;-35
2022/11/07 01:52:23;;;;;;;;;;;;;;;20.21;34.88;96995.19;5155670;27;19997;-35
2022/11/07 01:54:55;;;;;;;;;;;;;;;20.18;34.83;96990.63;5156028;27;19914;-35
2022/11/07 01:57:22;;;;;;;;;;;;;;;20.22;34.91;96996.72;5155607;27;19914;-35
2022/11/07 01:59:49;;;;;;;;;;;;;;;20.19;34.70;96992.16;5155743;27;19907;-35
2022/11/07 02:02:16;;;;;;;;;;;;;;;20.19;34.60;97003.16;5155596;27;19926;-36
2022/11/07 02:04:41;;;;;;;;;;;;;;;20.22;34.69;96991.22;5155447;27;20256;-36
2022/11/07 02:07:16;;;;;;;;;;;;;;;20.20;34.79;96992.91;5155351;27;20001;-35
2022/11/07 02:09:42;;;;;;;;;;;;;;;20.20;34.71;96987.41;5155485;27;19907;-35
2022/11/07 02:12:07;;;;;;;;;;;;;;;20.17;35.07;96993.84;5155352;27;19976;-35
2022/11/07 02:14:33;;;;;;;;;;;;;;;20.24;34.82;96997.00;5155659;27;19942;-35
2022/11/07 02:16:59;;;;;;;;;;;;;;;20.21;34.54;96995.19;5155461;27;19953;-35
2022/11/07 02:19:31;;;;;;;;;;;;;;;20.19;34.62;96999.66;5155446;27;19967;-36
2022/11/07 02:22:00;;;;;;;;;;;;;;;20.18;34.88;96998.91;5155359;27;20354;-35
2022/11/07 02:24:25;;;;;;;;;;;;;;;20.18;34.38;97006.41;5155290;27;19911;-35
2022/11/07 02:26:52;;;;;;;;;;;;;;;20.16;34.54;97001.34;5155146;27;19907;-35
2022/11/07 02:29:18;;;;;;;;;;;;;;;20.16;34.73;97009.63;5155302;27;19951;-35
2022/11/07 02:31:43;;;;;;;;;;;;;;;20.15;34.73;97008.13;5155083;27;19949;-35
2022/11/07 02:34:08;;;;;;;;;;;;;;;20.19;34.43;97008.69;5155247;27;19950;-34
2022/11/07 02:36:34;;;;;;;;;;;;;;;20.16;34.34;97012.38;5136683;27;20369;-35
2022/11/07 02:38:59;;;;;;;;;;;;;;;20.12;34.40;97017.34;5156715;27;19914;-35
2022/11/07 02:41:27;;;;;;;;;;;;;;;20.13;34.70;97016.09;5159396;27;19951;-35
2022/11/07 02:43:55;;;;;;;;;;;;;;;20.13;34.37;97016.09;5140684;27;19936;-35
2022/11/07 02:46:21;;;;;;;;;;;;;;;20.14;34.38;97017.63;5159072;27;19959;-35
2022/11/07 02:48:52;;;;;;;;;;;;;;;20.17;34.45;97015.88;5159086;27;19907;-30
2022/11/07 02:51:18;;;;;;;;;;;;;;;20.18;34.36;97012.66;5159097;27;19906;-30
2022/11/07 02:53:43;;;;;;;;;;;;;;;20.15;34.33;97010.13;5159123;27;20258;-32
2022/11/07 02:56:09;;;;;;;;;;;;;;;20.16;34.35;97014.38;5158879;27;19910;-31
2022/11/07 02:58:34;;;;;;;;;;;;;;;20.16;34.28;97012.38;5158888;27;20312;-32
2022/11/07 03:01:05;;;;;;;;;;;;;;;20.11;34.30;97010.31;5158835;27;19914;-32
2022/11/07 03:03:31;;;;;;;;;;;;;;;20.13;34.37;97010.59;5158690;27;19914;-31
2022/11/07 03:05:56;;;;;;;;;;;;;;;20.12;34.25;97009.06;5158884;27;19911;-30
2022/11/07 03:08:22;;;;;;;;;;;;;;;20.15;34.09;97013.63;5140210;27;19906;-30
2022/11/07 03:10:47;;;;;;;;;;;;;;;20.11;34.41;97007.56;5158757;27;19907;-31
2022/11/07 03:13:12;;;;;;;;;;;;;;;20.13;34.17;97013.34;5158687;27;19914;-32
2022/11/07 03:15:37;;;;;;;;;;;;;;;20.12;34.61;97011.06;5158644;27;20376;-31
2022/11/07 03:18:04;;;;;;;;;;;;;;;20.10;34.47;97008.78;5158393;27;20371;-31
2022/11/07 03:20:29;;;;;;;;;;;;;;;20.07;34.23;97004.22;5139493;27;20297;-30
2022/11/07 03:22:54;;;;;;;;;;;;;;;20.07;34.12;97007.75;5158414;27;19911;-30
2022/11/07 03:25:20;;;;;;;;;;;;;;;20.07;34.35;97016.00;5158347;27;20282;-31
2022/11/07 03:27:48;;;;;;;;;;;;;;;20.06;34.14;97013.72;5158331;27;19911;-30
2022/11/07 03:30:14;;;;;;;;;;;;;;;20.05;34.51;97007.44;5158156;27;19953;-31
2022/11/07 03:32:39;;;;;;;;;;;;;;;20.09;34.29;97002.50;5158078;27;19954;-30
2022/11/07 03:35:05;;;;;;;;;;;;;;;20.08;34.19;96998.25;5139484;27;19906;-30
2022/11/07 03:37:30;;;;;;;;;;;;;;;20.10;34.31;97003.28;5158275;27;19998;-31
2022/11/07 03:39:55;;;;;;;;;;;;;;;20.05;34.28;97004.69;5158110;27;19907;-30
2022/11/07 03:42:21;;;;;;;;;;;;;;;20.08;34.16;97006.50;5158061;27;19942;-31
2022/11/07 03:44:46;;;;;;;;;;;;;;;20.09;34.24;97010.03;5158094;27;19911;-32
2022/11/07 03:47:11;;;;;;;;;;;;;;;20.06;34.43;97013.72;5157964;27;19907;-33
2022/11/07 03:49:37;;;;;;;;;;;;;;;20.07;34.19;97007.75;5157524;27;19907;-30
2022/11/07 03:52:02;;;;;;;;;;;;;;;20.09;34.33;97024.53;5157776;27;19914;-30
2022/11/07 03:54:27;;;;;;;;;;;;;;;20.09;34.08;97021.78;5157758;27;19907;-31
2022/11/07 03:56:53;;;;;;;;;;;;;;;20.09;34.04;97026.53;5157689;27;19907;-32
2022/11/07 03:59:18;;;;;;;;;;;;;;;20.08;33.92;97030.53;5157811;27;19911;-32
2022/11/07 04:01:44;;;;;;;;;;;;;;;20.01;34.35;97030.91;5157860;27;19907;-32
2022/11/07 04:04:09;;;;;;;;;;;;;;;20.08;34.10;97036.03;5157739;27;20044;-30
2022/11/07 04:06:35;;;;;;;;;;;;;;;20.06;34.36;97035.75;5157485;27;19960;-31
2022/11/07 04:09:00;;;;;;;;;;;;;;;20.06;34.12;97033.00;5157622;27;20421;-30
2022/11/07 04:19:37;;;;;;;;;;;;;;;20.04;34.21;97038.97;5157166;27;19936;-31
2022/11/07 04:22:02;;;;;;;;;;;;;;;20.04;34.12;97036.22;5157550;27;19907;-32
2022/11/07 04:24:27;;;;;;;;;;;;;;;20.00;34.25;97040.41;5157446;27;19918;-30
2022/11/07 04:29:36;;;;;;;;;;;;;;;20.02;33.88;97043.44;5157147;27;19914;-30
2022/11/07 04:32:02;;;;;;;;;;;;;;;20.01;34.17;97042.69;5157090;27;19907;-30
2022/11/07 04:34:27;;;;;;;;;;;;;;;20.02;34.15;97043.44;5157092;27;20001;-31
2022/11/07 04:36:52;;;;;;;;;;;;;;;19.97;34.32;97046.84;5156993;27;19914;-31
2022/11/07 04:39:17;;;;;;;;;;;;;;;19.99;34.08;97044.38;5157012;27;20349;-31
2022/11/07 04:41:43;;;;;;;;;;;;;;;20.03;33.79;97055.97;5156948;27;19953;-31
2022/11/07 04:44:08;;;;;;;;;;;;;;;20.01;34.03;97061.19;5156796;27;19937;-32
2022/11/07 04:46:33;;;;;;;;;;;;;;;19.95;34.19;97066.59;5157034;27;19910;-31
2022/11/07 04:48:58;;;;;;;;;;;;;;;19.95;34.14;97060.31;5156842;27;19911;-30
2022/11/07 04:51:24;;;;;;;;;;;;;;;19.95;34.06;97060.31;5156602;27;19938;-31
2022/11/07 04:53:49;;;;;;;;;;;;;;;20.00;34.03;97067.94;5156585;27;19911;-31
2022/11/07 04:56:14;;;;;;;;;;;;;;;19.95;34.27;97061.09;5156671;27;20009;-30
2022/11/07 04:58:40;;;;;;;;;;;;;;;19.95;33.79;97054.81;5156442;27;20005;-31
2022/11/07 05:01:05;;;;;;;;;;;;;;;19.96;33.98;97061.84;5137010;27;19907;-31
2022/11/07 05:03:30;;;;;;;;;;;;;;;19.97;33.97;97064.13;5156255;27;19907;-30
2022/11/07 05:05:56;;;;;;;;;;;;;;;19.98;33.87;97059.38;5156316;27;20056;-31
2022/11/07 05:08:21;;;;;;;;;;;;;;;19.92;34.07;97061.25;5156255;27;19906;-30
2022/11/07 05:10:47;;;;;;;;;;;;;;;19.98;33.68;97062.13;5156586;27;19914;-30
2022/11/07 05:13:12;;;;;;;;;;;;;;;19.98;33.55;97059.38;5156377;27;19946;-30
2022/11/07 05:15:37;;;;;;;;;;;;;;;19.93;33.85;97063.53;5156299;27;19907;-31
2022/11/07 05:18:03;;;;;;;;;;;;;;;19.92;33.97;97072.28;5156156;27;20002;-30
2022/11/07 05:20:29;;;;;;;;;;;;;;;19.91;34.03;97065.25;5155966;27;19915;-31
2022/11/07 05:23:14;;;;;;;;;;;;;;;19.93;33.84;97062.78;5156146;27;19907;-30
2022/11/07 05:25:39;;;;;;;;;;;;;;;19.90;33.86;97069.25;5155933;27;19915;-31
2022/11/07 05:28:05;;;;;;;;;;;;;;;19.90;33.83;97072.00;5156151;27;19929;-30
2022/11/07 05:30:30;;;;;;;;;;;;;;;19.90;34.00;97070.03;5155866;27;19953;-30
2022/11/07 05:32:55;;;;;;;;;;;;;;;19.89;33.89;97064.97;5156013;27;20441;-31
2022/11/07 05:35:21;;;;;;;;;;;;;;;19.87;33.86;97072.94;5155827;27;19907;-30
2022/11/07 05:37:47;;;;;;;;;;;;;;;19.92;33.69;97070.28;5155874;27;19907;-30
2022/11/07 05:40:13;;;;;;;;;;;;;;;19.90;33.75;97074.75;5155662;27;19967;-30
2022/11/07 05:42:38;;;;;;;;;;;;;;;19.92;33.68;97075.78;5155788;27;20354;-30
2022/11/07 05:45:04;;;;;;;;;;;;;;;19.90;33.72;97074.75;5155910;27;20315;-30
2022/11/07 05:47:30;;;;;;;;;;;;;;;19.90;33.79;97072.00;5155894;27;19918;-30
2022/11/07 05:49:55;;;;;;;;;;;;;;;19.88;33.82;97075.22;5155854;27;20259;-32
2022/11/07 05:52:20;;;;;;;;;;;;;;;19.87;33.81;97070.97;5155699;27;19914;-31
2022/11/07 05:54:46;;;;;;;;;;;;;;;19.87;33.74;97070.97;5155622;27;19914;-31
2022/11/07 05:57:11;;;;;;;;;;;;;;;19.87;33.79;97075.69;5155468;27;20299;-30
2022/11/07 05:59:36;;;;;;;;;;;;;;;19.86;33.89;97080.44;5155632;27;19907;-30
2022/11/07 06:02:02;;;;;;;;;;;;;;;19.84;34.03;97093.16;5155534;27;19914;-30
2022/11/07 06:04:27;;;;;;;;;;;;;;;19.86;33.68;97090.69;5155375;27;19915;-30
2022/11/07 06:06:52;;;;;;;;;;;;;;;19.84;33.74;97087.66;5155768;27;20366;-31
2022/11/07 06:09:17;;;;;;;;;;;;;;;19.84;33.85;97093.16;5155549;27;19907;-31
2022/11/07 06:11:43;;;;;;;;;;;;;;;19.88;33.85;97086.25;5155328;27;19907;-31
2022/11/07 06:14:09;;;;;;;;;;;;;;;19.87;33.71;97092.22;5159041;27;20358;-31
2022/11/07 06:16:35;;;;;;;;;;;;;;;19.82;33.82;97099.13;5159677;27;19972;-31
2022/11/07 06:19:01;;;;;;;;;;;;;;;19.85;33.62;97103.69;5159371;27;19915;-31
2022/11/07 06:21:26;;;;;;;;;;;;;;;19.81;34.04;97097.59;5159857;27;19907;-32
2022/11/07 06:23:51;;;;;;;;;;;;;;;19.77;33.99;97101.78;5159530;27;19914;-31
2022/11/07 06:26:17;;;;;;;;;;;;;;;19.82;33.94;97106.63;5159931;27;19959;-30
2022/11/07 06:28:42;;;;;;;;;;;;;;;19.82;33.65;97114.88;5141202;27;19965;-30
2022/11/07 06:31:07;;;;;;;;;;;;;;;19.85;33.88;97111.19;5159749;27;20002;-30
2022/11/07 06:33:33;;;;;;;;;;;;;;;19.84;33.95;97117.94;5159524;27;19991;-31
2022/11/07 06:36:08;;;;;;;;;;;;;;;19.85;33.81;97122.19;5159522;27;20868;-31
2022/11/07 06:38:34;;;;;;;;;;;;;;;19.86;33.82;97118.97;5159435;27;19914;-31
2022/11/07 06:41:09;;;;;;;;;;;;;;;19.82;33.77;97118.41;5159259;27;19910;-30
2022/11/07 06:43:35;;;;;;;;;;;;;;;19.86;33.87;97126.47;5159581;27;19929;-30
2022/11/07 06:46:02;;;;;;;;;;;;;;;19.89;33.61;97133.81;5159211;27;20449;-30
2022/11/07 06:48:27;;;;;;;;;;;;;;;19.93;33.86;97126.09;5159072;27;19954;-30
2022/11/07 06:50:56;;;;;;;;;;;;;;;19.86;33.95;97134.75;5159254;27;19907;-30
2022/11/07 06:53:21;;;;;;;;;;;;;;;19.85;33.82;97139.47;5150868;27;19907;-30
2022/11/07 06:55:46;;;;;;;;;;;;;;;19.83;34.02;97135.66;5136281;27;19964;-31
2022/11/07 06:58:12;;;;;;;;;;;;;;;19.87;33.94;97141.75;5136117;27;20013;-31
2022/11/07 07:00:37;;;;;;;;;;;;;;;19.89;33.82;97133.81;5135986;27;19911;-31
2022/11/07 07:03:03;;;;;;;;;;;;;;;19.85;34.25;97149.72;5136001;27;19956;-31
2022/11/07 07:05:28;;;;;;;;;;;;;;;19.86;34.03;97148.50;5141510;27;19915;-30
2022/11/07 07:07:54;;;;;;;;;;;;;;;19.87;33.75;97147.28;5154746;27;19907;-31
2022/11/07 07:10:20;;;;;;;;;;;;;;;19.84;34.14;97148.97;5156598;27;20292;-31
2022/11/07 07:12:45;;;;;;;;;;;;;;;19.90;34.11;97149.09;5156451;27;20013;-31
2022/11/07 07:15:10;;;;;;;;;;;;;;;19.92;34.13;97152.09;5156488;27;19964;-30
2022/11/07 07:17:36;;;;;;;;;;;;;;;19.87;34.29;97152.78;5143322;27;19911;-30
2022/11/07 07:20:01;;;;;;;;;;;;;;;19.90;34.39;97157.34;5135599;27;19919;-31
2022/11/07 07:22:26;;;;;;;;;;;;;;;19.90;34.10;97160.88;5135774;27;20372;-31
2022/11/07 07:24:52;;;;;;;;;;;;;;;19.86;34.23;97170.53;5134732;27;20278;-30
2022/11/07 07:27:19;;;;;;;;;;;;;;;19.84;34.33;97165.47;5135594;27;19915;-32
2022/11/07 07:29:44;;;;;;;;;;;;;;;19.83;34.43;97168.69;5116825;27;19911;-33
2022/11/07 07:32:10;;;;;;;;;;;;;;;19.88;34.45;97173.56;5135451;27;19915;-31
2022/11/07 07:34:35;;;;;;;;;;;;;;;19.91;34.42;97169.84;5135192;27;19959;-30
2022/11/07 07:37:00;;;;;;;;;;;;;;;19.90;34.47;97171.13;5135380;27;20009;-30
2022/11/07 07:39:26;;;;;;;;;;;;;;;19.90;34.47;97171.13;5135394;27;19917;-30
2022/11/07 07:41:52;;;;;;;;;;;;;;;19.85;34.65;97174.50;5139900;27;19907;-31
2022/11/07 07:44:17;;;;;;;;;;;;;;;19.88;34.67;97179.06;5155881;27;19911;-31
2022/11/07 07:46:42;;;;;;;;;;;;;;;19.86;34.75;97181.53;5155823;27;19911;-30
2022/11/07 07:49:08;;;;;;;;;;;;;;;19.78;34.78;97181.09;5156066;27;19915;-33
2022/11/07 07:51:33;;;;;;;;;;;;;;;19.81;34.91;97187.66;5156024;27;19911;-31
2022/11/07 07:53:59;;;;;;;;;;;;;;;19.82;34.83;97191.94;5155623;27;19911;-30
2022/11/07 07:56:24;;;;;;;;;;;;;;;19.85;34.98;97194.53;5155722;27;19926;-30
2022/11/07 07:58:49;;;;;;;;;;;;;;;19.88;34.95;97190.09;5155799;27;19958;-31
2022/11/07 08:01:20;;;;;;;;;;;;;;;19.86;35.18;97193.31;5155721;27;19945;-31
2022/11/07 08:03:48;;;;;;;;;;;;;;;19.82;35.31;97189.97;5155400;27;19950;-30
2022/11/07 08:06:13;;;;;;;;;;;;;;;19.82;35.36;97195.47;5155337;27;20009;-32
2022/11/07 08:08:39;;;;;;;;;;;;;;;19.85;35.46;97196.53;5153297;27;19999;-30
2022/11/07 08:11:06;;;;;;;;;;;;;;;19.90;35.58;97201.41;5155487;27;19965;-30
2022/11/07 08:13:31;;;;;;;;;;;;;;;19.88;35.53;97206.59;5155540;27;19979;-32
2022/11/07 08:15:56;;;;;;;;;;;;;;;19.92;35.55;97194.16;5155414;27;20370;-31
2022/11/07 08:18:22;;;;;;;;;;;;;;;19.90;35.72;97202.16;5155089;27;19907;-31
2022/11/07 08:20:52;;;;;;;;;;;;;;;19.87;35.77;97200.34;5155196;27;20018;-32
2022/11/07 08:23:17;;;;;;;;;;;;;;;19.89;35.76;97205.38;5155296;27;19918;-30
2022/11/07 08:26:03;;;;;;;;;;;;;;;19.80;36.08;97208.16;5154796;27;19919;-32
2022/11/07 08:28:29;;;;;;;;;;;;;;;19.87;35.90;97214.09;5154753;27;19911;-31
2022/11/07 08:30:59;;;;;;;;;;;;;;;19.87;35.93;97214.09;5141064;27;20005;-32
2022/11/07 08:33:25;;;;;;;;;;;;;;;19.88;36.02;97209.34;5136491;27;19907;-30
2022/11/07 08:35:50;;;;;;;;;;;;;;;18.89;39.02;97217.59;5135416;27;20358;-31
2022/11/07 08:38:15;;;;;;;;;;;;;;;18.36;40.74;97222.66;5135965;27;19907;-32
2022/11/07 08:40:41;;;;;;;;;;;;;;;18.50;40.60;97220.06;5136084;27;19907;-30
2022/11/07 08:43:06;;;;;;;;;;;;;;;18.95;39.56;97213.72;5136339;27;19908;-30
2022/11/07 08:45:31;;;;;;;;;;;;;;;19.22;38.86;97223.13;5135242;27;19911;-30
2022/11/07 08:47:57;;;;;;;;;;;;;;;18.63;40.62;97214.44;5135738;27;20347;-31
2022/11/07 08:50:23;;;;;;;;;;;;;;;18.95;39.80;97215.72;5135823;27;20043;-29
2022/11/07 08:52:48;;;;;;;;;;;;;;;19.23;39.21;97222.66;5135396;27;19998;-30
2022/11/07 08:55:13;;;;;;;;;;;;;;;19.56;38.43;97217.16;5134958;27;19907;-29
2022/11/07 08:57:39;;;;;;;;;;;;;;;19.55;38.12;97210.16;5135212;27;20395;-30
2022/11/07 09:00:05;;;;;;;;;;;;;;;19.68;38.17;97218.94;5135583;27;19907;-30
2022/11/07 09:02:30;;;;;;;;;;;;;;;19.61;37.97;97230.31;5135295;27;19951;-30
2022/11/07 09:04:56;;;;;;;;;;;;;;;19.73;37.89;97229.31;5135664;27;19955;-30
2022/11/07 09:07:21;;;;;;;;;;;;;;;19.73;38.01;97226.56;5135600;27;19907;-29
2022/11/07 09:09:46;;;;;;;;;;;;;;;19.68;37.98;97218.94;5135615;27;19946;-29
2022/11/07 09:12:12;;;;;;;;;;;;;;;19.76;38.04;97224.13;5117299;27;19907;-30
2022/11/07 09:14:37;;;;;;;;;;;;;;;19.75;37.96;97226.09;5135561;27;19914;-30
2022/11/07 09:17:02;;;;;;;;;;;;;;;19.78;37.87;97232.66;5135405;27;19907;-29
2022/11/07 09:19:27;;;;;;;;;;;;;;;19.80;37.92;97233.69;5135203;27;20063;-29
2022/11/07 09:21:53;;;;;;;;;;;;;;;19.81;38.07;97231.72;5135721;27;19963;-29
2022/11/07 09:24:18;;;;;;;;;;;;;;;19.82;37.95;97230.47;5135300;27;20389;-30
2022/11/07 09:26:43;;;;;;;;;;;;;;;19.86;37.93;97228.31;5135397;27;19968;-29
2022/11/07 09:29:09;;;;;;;;;;;;;;;19.73;38.36;97240.31;5135653;27;19912;-31
2022/11/07 09:31:34;;;;;;;;;;;;;;;19.85;38.17;97240.56;5135388;27;19914;-29
2022/11/07 09:33:59;;;;;;;;;;;;;;;19.85;38.23;97244.09;5135333;27;19913;-30
2022/11/07 09:36:24;;;;;;;;;;;;;;;19.87;38.25;97243.63;5135152;27;19915;-30
2022/11/07 09:38:50;;;;;;;;;;;;;;;19.85;38.22;97246.06;5135136;27;20347;-30
2022/11/07 09:41:31;;;;;;;;;;;;;;;19.81;38.42;97248.22;5134913;27;20320;-30
2022/11/07 09:44:04;;;;;;;;;;;;;;;19.93;38.19;97256.25;5135039;27;19960;-29
2022/11/07 09:46:41;;;;;;;;;;;;;;;19.91;38.15;97255.97;5135478;27;19960;-29
2022/11/07 09:49:15;;;;;;;;;;;;;;;19.86;38.40;97248.34;5134677;27;19911;-30
2022/11/07 09:51:49;;;;;;;;;;;;;;;19.91;38.34;97252.44;5134911;27;19914;-30
2022/11/07 09:54:16;;;;;;;;;;;;;;;19.92;38.19;97251.22;5135024;27;19907;-29
2022/11/07 09:56:42;;;;;;;;;;;;;;;19.89;38.32;97260.44;5134759;27;19915;-30
2022/11/07 09:59:15;;;;;;;;;;;;;;;19.95;38.48;97253.78;5134889;27;20447;-30
2022/11/07 10:01:40;;;;;;;;;;;;;;;19.84;38.54;97259.06;5134959;27;19914;-30
2022/11/07 10:04:07;;;;;;;;;;;;;;;19.80;38.67;97250.22;5134786;28;19907;-31
2022/11/07 10:06:40;;;;;;;;;;;;;;;19.77;38.91;97262.19;5134817;28;19914;-29
2022/11/07 10:09:10;;;;;;;;;;;;;;;19.76;38.90;97266.16;5134682;28;19916;-30
2022/11/07 10:11:41;;;;;;;;;;;;;;;19.62;39.21;97262.09;5134806;28;19912;-29
2022/11/07 10:14:10;;;;;;;;;;;;;;;19.75;39.35;97261.13;5135005;28;20286;-29
2022/11/07 10:16:46;;;;;;;;;;;;;;;19.84;39.06;97256.31;5134813;28;19907;-29
2022/11/07 10:19:26;;;;;;;;;;;;;;;19.86;38.95;97262.13;5134815;28;20002;-29
2022/11/07 10:21:52;;;;;;;;;;;;;;;19.90;38.87;97256.44;5134532;28;19952;-29
2022/11/07 10:24:29;;;;;;;;;;;;;;;19.72;39.79;97246.28;5134709;28;19911;-31
2022/11/07 10:26:55;;;;;;;;;;;;;;;19.85;39.09;97254.31;5134743;28;19908;-29
2022/11/07 10:29:26;;;;;;;;;;;;;;;19.92;38.92;97253.97;5143509;27;20631;-30
2022/11/07 10:31:54;;;;;;;;;;;;;;;19.92;39.10;97259.47;5134224;27;20285;-29
2022/11/07 10:34:30;;;;;;;;;;;;;;;19.85;39.25;97259.84;5155141;27;19911;-30
2022/11/07 10:36:55;;;;;;;;;;;;;;;19.90;39.01;97265.47;5136549;27;19907;-29
2022/11/07 10:39:20;;;;;;;;;;;;;;;19.96;38.82;97252.56;5155529;27;19907;-29
2022/11/07 10:41:57;;;;;;;;;;;;;;;19.86;39.56;97258.59;5154854;27;20001;-29
2022/11/07 10:44:26;;;;;;;;;;;;;;;19.92;39.09;97248.47;5154910;27;19922;-29
2022/11/07 10:46:51;;;;;;;;;;;;;;;19.84;39.35;97255.56;5155424;27;19954;-29
2022/11/07 10:49:18;;;;;;;;;;;;;;;19.86;39.55;97253.09;5154919;27;19914;-31
2022/11/07 10:51:44;;;;;;;;;;;;;;;19.96;38.98;97246.31;5154814;27;20408;-29
2022/11/07 10:54:24;;;;;;;;;;;;;;;19.92;39.05;97248.47;5155437;27;20005;-29
2022/11/07 10:57:01;;;;;;;;;;;;;;;19.96;39.00;97247.06;5155080;27;19997;-30
2022/11/07 10:59:28;;;;;;;;;;;;;;;19.97;39.09;97245.84;5155761;27;19946;-29
2022/11/07 11:01:54;;;;;;;;;;;;;;;19.97;39.23;97240.34;5140194;27;19907;-29
2022/11/07 11:04:24;;;;;;;;;;;;;;;19.99;39.19;97242.63;5159052;27;20038;-29
2022/11/07 11:07:09;;;;;;;;;;;;;;;20.05;39.12;97246.22;5158849;27;19918;-30
2022/11/07 11:09:34;;;;;;;;;;;;;;;19.96;39.46;97244.31;5158715;27;19929;-29
2022/11/07 11:12:11;;;;;;;;;;;;;;;19.65;40.69;97247.41;5158616;27;19951;-29
2022/11/07 11:14:36;;;;;;;;;;;;;;;19.91;39.69;97239.44;5158662;27;19907;-29
2022/11/07 11:17:02;;;;;;;;;;;;;;;19.69;40.37;97255.47;5158565;27;19911;-28
2022/11/07 11:19:32;;;;;;;;;;;;;;;19.79;40.23;97245.16;5158249;27;19954;-30
2022/11/07 11:21:58;;;;;;;;;;;;;;;19.91;39.78;97236.69;5158527;27;20378;-29
2022/11/07 11:24:30;;;;;;;;;;;;;;;19.99;39.68;97242.63;5158525;27;19915;-29
2022/11/07 11:26:57;;;;;;;;;;;;;;;20.01;39.42;97229.16;5158299;27;19913;-29
2022/11/07 11:29:37;;;;;;;;;;;;;;;19.68;41.13;97229.19;5158260;27;19911;-29
2022/11/07 11:32:03;;;;;;;;;;;;;;;19.83;40.09;97224.50;5158263;27;19998;-29
2022/11/07 11:34:41;;;;;;;;;;;;;;;19.95;40.08;97223.50;5158225;27;20068;-29
2022/11/07 11:37:12;;;;;;;;;;;;;;;19.85;40.44;97224.81;5158145;27;19997;-29
2022/11/07 11:39:44;;;;;;;;;;;;;;;19.94;39.82;97223.97;5158017;27;19958;-31
2022/11/07 11:42:24;;;;;;;;;;;;;;;20.00;39.64;97222.88;5139378;27;20005;-30
2022/11/07 11:44:51;;;;;;;;;;;;;;;20.09;39.63;97225.56;5157887;27;19922;-30
2022/11/07 11:47:24;;;;;;;;;;;;;;;19.96;39.99;97227.78;5157882;27;19907;-31
2022/11/07 11:49:58;;;;;;;;;;;;;;;19.98;40.16;97222.59;5157936;27;19911;-32
2022/11/07 11:52:24;;;;;;;;;;;;;;;20.05;39.66;97224.19;5157853;27;20281;-33
2022/11/07 11:54:50;;;;;;;;;;;;;;;20.08;39.63;97224.03;5157753;27;20362;-33
2022/11/07 11:57:16;;;;;;;;;;;;;;;20.15;39.60;97222.16;5157793;27;19907;-28
2022/11/07 12:00:10;;;;;;;;;;;;;;;20.07;39.75;97222.50;5157722;27;19906;-29
2022/11/07 12:02:36;;;;;;;;;;;;;;;20.12;40.05;97212.09;5124656;27;19915;-30
2022/11/07 12:05:01;;;;;;;;;;;;;;;20.04;39.96;97222.69;5157559;27;19910;-31
2022/11/07 12:07:44;;;;;;;;;;;;;;;20.07;39.77;97210.72;5138873;27;20370;-28
2022/11/07 12:10:35;;;;;;;;;;;;;;;20.04;40.19;97206.16;5157374;27;19910;-30
2022/11/07 12:13:08;;;;;;;;;;;;;;;20.09;39.84;97205.53;5117734;27;19913;-28
2022/11/07 12:15:42;;;;;;;;;;;;;;;20.15;39.70;97200.91;5157272;27;19907;-28
2022/11/07 12:18:10;;;;;;;;;;;;;;;20.14;39.93;97199.38;5157502;27;19914;-28
2022/11/07 12:20:54;;;;;;;;;;;;;;;20.17;39.74;97198.41;5157234;27;20366;-28
2022/11/07 12:23:22;;;;;;;;;;;;;;;20.22;39.61;97189.50;5157214;27;19910;-28
2022/11/07 12:25:50;;;;;;;;;;;;;;;20.20;39.68;97183.69;5157381;27;19911;-29
2022/11/07 12:28:34;;;;;;;;;;;;;;;20.20;39.59;97185.69;5157279;27;20274;-29
2022/11/07 12:31:35;;;;;;;;;;;;;;;19.97;40.58;97173.50;5157151;27;20378;-29
2022/11/07 12:34:00;;;;;;;;;;;;;;;20.12;40.21;97177.06;5053025;28;19909;-28
2022/11/07 12:36:25;;;;;;;;;;;;;;;20.18;39.88;97180.66;5052999;28;20266;-28
2022/11/07 12:38:50;;;;;;;;;;;;;;;20.17;40.02;97181.13;5052888;28;19939;-28
2022/11/07 12:41:30;;;;;;;;;;;;;;;20.03;40.92;97180.63;5052947;28;19994;-31
2022/11/07 12:43:58;;;;;;;;;;;;;;;19.95;40.96;97176.72;5053346;28;19909;-28
2022/11/07 12:46:43;;;;;;;;;;;;;;;20.01;40.75;97179.59;5053094;28;19928;-28
2022/11/07 12:49:17;;;;;;;;;;;;;;;20.03;40.50;97172.34;5052930;28;20303;-29
2022/11/07 12:51:53;;;;;;;;;;;;;;;20.17;40.46;97176.38;5052613;28;19908;-28
2022/11/07 12:54:18;;;;;;;;;;;;;;;20.17;40.07;97170.88;5052894;28;20249;-28
2022/11/07 12:56:44;;;;;;;;;;;;;;;20.23;39.79;97176.50;5052555;28;20003;-28
2022/11/07 12:59:16;;;;;;;;;;;;;;;20.24;39.90;97172.50;5052584;28;20017;-28
2022/11/07 13:01:44;;;;;;;;;;;;;;;20.18;40.00;97166.88;5052447;28;19968;-29